createdAt,value
2023-02-26T00:01:33.141Z,3.17
2023-02-26T00:04:03.260Z,3.27
2023-02-26T00:06:33.857Z,3.60
2023-02-26T00:09:01.878Z,3.20
2023-02-26T00:11:29.273Z,3.28
2023-02-26T00:13:57.323Z,3.20
2023-02-26T00:16:29.679Z,2.92
2023-02-26T00:18:59.545Z,3.20
2023-02-26T00:21:27.795Z,3.30
2023-02-26T00:23:55.822Z,3.30
2023-02-26T00:26:26.416Z,2.55
2023-02-26T00:28:54.662Z,2.97
2023-02-26T00:31:24.918Z,2.70
2023-02-26T00:33:54.398Z,2.72
2023-02-26T00:36:23.762Z,3.08
2023-02-26T00:39:19.231Z,2.78
2023-02-26T00:41:46.821Z,3.03
2023-02-26T00:44:14.443Z,2.83
2023-02-26T00:46:47.501Z,2.95
2023-02-26T00:49:52.182Z,2.72
2023-02-26T00:52:39.577Z,3.08
2023-02-26T00:55:07.036Z,2.92
2023-02-26T00:57:34.080Z,3.00
2023-02-26T01:00:01.960Z,2.95
2023-02-26T01:02:29.378Z,3.10
2023-02-26T01:04:57.757Z,3.10
2023-02-26T01:07:25.182Z,2.97
2023-02-26T01:09:53.005Z,2.50
2023-02-26T01:12:20.366Z,2.75
2023-02-26T01:14:48.461Z,2.38
2023-02-26T01:17:29.519Z,2.50
2023-02-26T01:20:23.562Z,2.33
2023-02-26T01:23:03.923Z,2.58
2023-02-26T01:25:54.851Z,2.63
2023-02-26T01:28:22.523Z,2.40
2023-02-26T01:30:53.179Z,2.28
2023-02-26T01:33:31.936Z,2.70
2023-02-26T01:36:10.243Z,2.50
2023-02-26T01:38:51.868Z,2.78
2023-02-26T01:41:33.649Z,2.45
2023-02-26T01:44:08.706Z,2.50
2023-02-26T01:47:01.979Z,2.65
2023-02-26T01:49:29.909Z,2.70
2023-02-26T01:51:59.739Z,2.63
2023-02-26T01:54:38.527Z,2.80
2023-02-26T01:57:10.193Z,2.70
2023-02-26T01:59:41.593Z,2.67
2023-02-26T02:02:11.708Z,3.22
2023-02-26T02:04:40.643Z,2.63
2023-02-26T02:07:08.186Z,3.20
2023-02-26T02:09:35.873Z,2.80
2023-02-26T02:12:03.132Z,3.10
2023-02-26T02:14:43.808Z,2.80
2023-02-26T02:17:23.487Z,3.03
2023-02-26T02:19:53.311Z,3.40
2023-02-26T02:22:45.248Z,3.17
2023-02-26T02:25:30.995Z,3.35
2023-02-26T02:28:02.963Z,2.92
2023-02-26T02:30:38.714Z,3.50
2023-02-26T02:33:19.937Z,2.78
2023-02-26T02:36:01.799Z,2.85
2023-02-26T02:38:54.251Z,3.90
2023-02-26T02:41:35.341Z,2.92
2023-02-26T02:44:09.120Z,2.90
2023-02-26T02:46:41.230Z,3.78
2023-02-26T02:49:32.461Z,3.30
2023-02-26T02:52:02.849Z,3.33
2023-02-26T02:54:43.359Z,3.20
2023-02-26T02:57:29.439Z,3.33
2023-02-26T03:00:05.710Z,3.03
2023-02-26T03:02:52.845Z,3.15
2023-02-26T03:05:20.667Z,3.55
2023-02-26T03:07:56.696Z,3.10
2023-02-26T03:10:24.382Z,2.72
2023-02-26T03:12:51.339Z,3.38
2023-02-26T03:15:28.620Z,3.25
2023-02-26T03:18:06.550Z,2.72
2023-02-26T03:20:39.556Z,2.97
2023-02-26T03:23:20.187Z,3.05
2023-02-26T03:25:55.040Z,3.00
2023-02-26T03:28:31.700Z,3.20
2023-02-26T03:31:26.578Z,3.22
2023-02-26T03:34:07.299Z,3.20
2023-02-26T03:36:42.414Z,3.10
2023-02-26T03:39:33.581Z,2.70
2023-02-26T03:42:09.411Z,3.00
2023-02-26T03:44:56.084Z,2.80
2023-02-26T03:47:25.385Z,2.70
2023-02-26T03:50:02.331Z,3.30
2023-02-26T03:52:37.336Z,2.65
2023-02-26T03:55:24.044Z,2.15
2023-02-26T03:58:03.601Z,2.65
2023-02-26T04:00:43.091Z,2.35
2023-02-26T04:03:21.759Z,2.20
2023-02-26T04:05:50.820Z,2.80
2023-02-26T04:08:21.830Z,2.92
2023-02-26T04:10:54.444Z,2.33
2023-02-26T04:13:22.574Z,2.53
2023-02-26T04:15:50.457Z,2.20
2023-02-26T04:18:18.001Z,2.47
2023-02-26T04:20:44.884Z,2.40
2023-02-26T04:23:12.439Z,2.42
2023-02-26T04:25:39.832Z,2.30
2023-02-26T04:28:08.123Z,2.22
2023-02-26T04:30:35.569Z,2.55
2023-02-26T04:33:04.659Z,2.42
2023-02-26T04:35:31.967Z,2.50
2023-02-26T04:37:59.389Z,2.40
2023-02-26T04:40:27.777Z,2.63
2023-02-26T04:42:55.213Z,2.50
2023-02-26T04:45:25.578Z,2.50
2023-02-26T04:47:53.770Z,2.20
2023-02-26T04:50:20.824Z,2.22
2023-02-26T04:55:19.397Z,1.75
2023-02-26T04:57:47.093Z,1.80
2023-02-26T05:00:15.481Z,2.10
2023-02-26T05:02:42.858Z,1.75
2023-02-26T05:05:10.135Z,1.90
2023-02-26T05:07:37.815Z,1.60
2023-02-26T05:10:06.998Z,1.42
2023-02-26T05:12:34.253Z,1.52
2023-02-26T05:15:01.565Z,1.60
2023-02-26T05:17:28.868Z,1.70
2023-02-26T05:19:56.225Z,1.88
2023-02-26T05:22:24.526Z,1.60
2023-02-26T05:24:51.459Z,1.70
2023-02-26T05:27:18.794Z,2.00
2023-02-26T05:29:47.629Z,1.85
2023-02-26T05:32:15.572Z,2.13
2023-02-26T05:34:44.216Z,2.22
2023-02-26T05:37:11.921Z,2.42
2023-02-26T05:39:41.464Z,3.13
2023-02-26T05:42:09.335Z,3.05
2023-02-26T05:44:36.516Z,3.15
2023-02-26T05:47:03.838Z,2.95
2023-02-26T05:49:30.872Z,3.08
2023-02-26T05:51:58.194Z,3.00
2023-02-26T05:54:25.417Z,2.78
2023-02-26T05:56:53.037Z,2.95
2023-02-26T05:59:20.590Z,3.17
2023-02-26T06:01:48.035Z,2.40
2023-02-26T06:04:15.265Z,2.03
2023-02-26T06:06:42.475Z,1.70
2023-02-26T06:09:09.535Z,1.85
2023-02-26T06:11:38.655Z,1.90
2023-02-26T06:14:06.024Z,2.10
2023-02-26T06:16:35.847Z,1.50
2023-02-26T06:19:03.746Z,1.80
2023-02-26T06:21:30.973Z,1.60
2023-02-26T06:23:58.045Z,1.73
2023-02-26T06:26:25.898Z,1.77
2023-02-26T06:28:53.481Z,1.60
2023-02-26T06:31:20.735Z,1.90
2023-02-26T06:33:47.987Z,2.20
2023-02-26T06:36:15.140Z,2.10
2023-02-26T06:38:42.356Z,1.80
2023-02-26T06:41:09.664Z,1.90
2023-02-26T06:43:36.845Z,1.90
2023-02-26T06:46:04.313Z,1.60
2023-02-26T06:48:31.684Z,1.77
2023-02-26T06:50:59.001Z,2.30
2023-02-26T06:53:26.165Z,1.83
2023-02-26T06:55:53.626Z,1.88
2023-02-26T06:58:21.425Z,1.83
2023-02-26T07:00:48.677Z,1.90
2023-02-26T07:03:17.115Z,1.85
2023-02-26T07:05:46.578Z,1.52
2023-02-26T07:08:14.385Z,1.60
2023-02-26T07:10:43.442Z,1.88
2023-02-26T07:13:10.895Z,1.50
2023-02-26T07:15:38.464Z,1.48
2023-02-26T07:18:05.514Z,1.65
2023-02-26T07:20:34.303Z,1.80
2023-02-26T07:23:01.497Z,1.70
2023-02-26T07:25:29.668Z,2.03
2023-02-26T07:27:56.828Z,1.70
2023-02-26T07:30:24.038Z,1.75
2023-02-26T07:32:50.979Z,2.05
2023-02-26T07:35:19.011Z,1.45
2023-02-26T07:37:46.082Z,1.55
2023-02-26T07:40:14.154Z,1.40
2023-02-26T07:42:41.194Z,1.27
2023-02-26T07:45:08.909Z,1.38
2023-02-26T07:47:35.831Z,1.85
2023-02-26T07:50:03.837Z,1.80
2023-02-26T07:52:30.855Z,1.75
2023-02-26T07:54:58.582Z,1.58
2023-02-26T07:57:25.555Z,1.73
2023-02-26T07:59:52.810Z,1.80
2023-02-26T08:02:19.793Z,1.73
2023-02-26T08:04:47.195Z,2.05
2023-02-26T08:07:14.292Z,1.60
2023-02-26T08:09:41.690Z,1.95
2023-02-26T08:12:08.618Z,1.98
2023-02-26T08:14:36.028Z,1.60
2023-02-26T08:17:03.224Z,1.77
2023-02-26T08:19:30.701Z,1.88
2023-02-26T08:21:57.658Z,1.67
2023-02-26T08:24:25.268Z,1.88
2023-02-26T08:26:52.336Z,1.77
2023-02-26T08:29:20.218Z,2.08
2023-02-26T08:31:47.226Z,2.00
2023-02-26T08:34:14.836Z,1.83
2023-02-26T08:36:42.269Z,1.55
2023-02-26T08:39:10.011Z,1.70
2023-02-26T08:41:37.089Z,1.73
2023-02-26T08:44:05.291Z,1.60
2023-02-26T08:46:32.735Z,1.30
2023-02-26T08:49:00.691Z,1.05
2023-02-26T08:51:28.257Z,1.33
2023-02-26T08:53:57.030Z,1.23
2023-02-26T08:56:24.552Z,1.70
2023-02-26T08:58:52.548Z,1.00
2023-02-26T09:01:19.564Z,1.52
2023-02-26T09:03:46.730Z,1.85
2023-02-26T09:06:13.778Z,1.60
2023-02-26T09:08:40.936Z,1.70
2023-02-26T09:11:08.151Z,1.70
2023-02-26T09:13:37.055Z,1.30
2023-02-26T09:16:04.722Z,1.50
2023-02-26T09:18:32.254Z,1.25
2023-02-26T09:20:59.410Z,1.20
2023-02-26T09:23:27.315Z,1.08
2023-02-26T09:25:55.527Z,1.17
2023-02-26T09:28:24.602Z,1.40
2023-02-26T09:30:53.473Z,1.40
2023-02-26T09:33:21.947Z,1.30
2023-02-26T09:35:50.740Z,1.33
2023-02-26T09:38:18.864Z,1.50
2023-02-26T09:40:56.575Z,1.27
2023-02-26T09:43:36.518Z,1.42
2023-02-26T09:46:30.610Z,1.27
2023-02-26T09:49:04.093Z,1.52
2023-02-26T09:51:33.852Z,1.40
2023-02-26T09:54:08.139Z,1.30
2023-02-26T09:56:37.082Z,1.58
2023-02-26T09:59:04.361Z,1.60
2023-02-26T10:02:01.552Z,1.80
2023-02-26T10:04:54.675Z,2.08
2023-02-26T10:07:40.198Z,2.00
2023-02-26T10:10:16.854Z,1.90
2023-02-26T10:12:45.313Z,1.67
2023-02-26T10:15:22.863Z,1.85
2023-02-26T10:18:19.223Z,1.90
2023-02-26T10:20:58.955Z,1.60
2023-02-26T10:23:37.503Z,2.10
2023-02-26T10:26:12.452Z,2.00
2023-02-26T10:28:51.684Z,2.60
2023-02-26T10:31:38.752Z,2.20
2023-02-26T10:34:38.316Z,2.40
2023-02-26T10:37:24.527Z,2.42
2023-02-26T10:40:00.944Z,2.15
2023-02-26T10:42:38.009Z,2.55
2023-02-26T10:45:23.510Z,2.60
2023-02-26T10:48:09.719Z,2.17
2023-02-26T10:50:39.157Z,2.90
2023-02-26T10:53:10.069Z,2.60
2023-02-26T10:55:43.519Z,2.35
2023-02-26T10:58:16.043Z,2.78
2023-02-26T11:00:46.542Z,3.30
2023-02-26T11:03:22.865Z,2.47
2023-02-26T11:05:50.270Z,2.10
2023-02-26T11:08:28.110Z,2.50
2023-02-26T11:10:58.049Z,2.20
2023-02-26T11:13:30.682Z,2.38
2023-02-26T11:16:01.245Z,2.35
2023-02-26T11:18:36.693Z,2.38
2023-02-26T11:21:06.338Z,1.90
2023-02-26T11:23:34.423Z,1.70
2023-02-26T11:26:08.934Z,2.08
2023-02-26T11:28:43.117Z,1.40
2023-02-26T11:31:12.259Z,1.40
2023-02-26T11:34:00.275Z,1.83
2023-02-26T11:36:29.896Z,1.48
2023-02-26T11:39:33.452Z,1.67
2023-02-26T11:42:02.638Z,1.80
2023-02-26T11:44:42.061Z,1.40
2023-02-26T11:47:16.810Z,1.42
2023-02-26T11:50:10.779Z,1.02
2023-02-26T11:52:43.223Z,1.75
2023-02-26T11:55:33.004Z,1.05
2023-02-26T11:58:00.578Z,1.85
2023-02-26T12:00:40.143Z,1.27
2023-02-26T12:03:15.797Z,1.40
2023-02-26T12:05:45.739Z,1.25
2023-02-26T12:08:42.348Z,1.50
2023-02-26T12:11:11.924Z,1.48
2023-02-26T12:14:10.408Z,1.52
2023-02-26T12:17:07.871Z,1.63
2023-02-26T12:19:46.352Z,2.40
2023-02-26T12:22:32.555Z,2.42
2023-02-26T12:25:02.374Z,1.52
2023-02-26T12:27:59.320Z,2.10
2023-02-26T12:30:45.014Z,1.80
2023-02-26T12:33:32.916Z,1.55
2023-02-26T12:36:28.278Z,2.00
2023-02-26T12:39:20.953Z,2.17
2023-02-26T12:42:24.563Z,1.90
2023-02-26T12:45:50.804Z,2.15
2023-02-26T12:48:40.569Z,2.20
2023-02-26T12:51:29.190Z,1.80
2023-02-26T12:54:16.500Z,2.08
2023-02-26T12:57:13.164Z,2.25
2023-02-26T13:00:05.328Z,2.20
2023-02-26T13:02:48.047Z,1.90
2023-02-26T13:05:39.493Z,2.72
2023-02-26T13:08:33.505Z,1.65
2023-02-26T13:11:29.455Z,2.30
2023-02-26T13:14:26.076Z,1.38
2023-02-26T13:17:02.530Z,1.20
2023-02-26T13:19:50.013Z,1.40
2023-02-26T13:22:34.300Z,1.20
2023-02-26T13:25:07.083Z,1.42
2023-02-26T13:27:38.759Z,3.25
2023-02-26T13:30:18.759Z,1.45
2023-02-26T13:32:50.118Z,1.35
2023-02-26T13:37:53.119Z,1.50
2023-02-26T13:40:43.404Z,2.22
2023-02-26T13:43:26.540Z,2.15
2023-02-26T13:46:02.145Z,1.42
2023-02-26T13:48:43.614Z,1.30
2023-02-26T13:51:30.789Z,1.70
2023-02-26T13:54:02.271Z,1.50
2023-02-26T13:56:32.779Z,1.40
2023-02-26T13:59:24.370Z,1.40
2023-02-26T14:02:03.078Z,1.38
2023-02-26T14:04:51.678Z,1.30
2023-02-26T14:07:57.254Z,1.30
2023-02-26T14:10:43.705Z,1.27
2023-02-26T14:13:20.054Z,1.70
2023-02-26T14:16:11.260Z,1.20
2023-02-26T14:18:47.697Z,1.48
2023-02-26T14:21:27.193Z,1.50
2023-02-26T14:24:00.212Z,1.60
2023-02-26T14:26:32.396Z,1.60
2023-02-26T14:29:05.912Z,1.38
2023-02-26T14:32:03.235Z,1.65
2023-02-26T14:34:37.521Z,1.50
2023-02-26T14:37:08.781Z,1.40
2023-02-26T14:39:40.306Z,1.23
2023-02-26T14:42:14.610Z,1.45
2023-02-26T14:44:51.409Z,1.40
2023-02-26T14:47:18.999Z,1.60
2023-02-26T14:49:49.538Z,1.50
2023-02-26T14:53:03.269Z,1.35
2023-02-26T14:55:39.538Z,1.85
2023-02-26T14:58:36.059Z,1.58
2023-02-26T15:01:20.727Z,1.30
2023-02-26T15:04:24.195Z,1.45
2023-02-26T15:07:11.741Z,1.50
2023-02-26T15:09:56.685Z,1.23
2023-02-26T15:12:26.822Z,1.65
2023-02-26T15:15:14.900Z,1.70
2023-02-26T15:18:05.450Z,1.65
2023-02-26T15:20:59.982Z,1.75
2023-02-26T15:23:47.669Z,1.90
2023-02-26T15:26:29.748Z,1.75
2023-02-26T15:28:59.714Z,1.40
2023-02-26T15:31:43.973Z,1.70
2023-02-26T15:34:13.291Z,2.17
2023-02-26T15:36:45.325Z,1.85
2023-02-26T15:39:16.046Z,1.65
2023-02-26T15:41:44.865Z,1.67
2023-02-26T15:44:22.609Z,1.60
2023-02-26T15:46:55.230Z,1.98
2023-02-26T15:49:44.426Z,1.80
2023-02-26T15:52:17.825Z,2.05
2023-02-26T15:54:52.322Z,1.83
2023-02-26T15:57:20.606Z,1.48
2023-02-26T15:59:52.593Z,1.70
2023-02-26T16:02:27.411Z,2.05
2023-02-26T16:04:55.436Z,1.60
2023-02-26T16:07:22.958Z,1.83
2023-02-26T16:09:54.303Z,1.77
2023-02-26T16:12:38.900Z,1.93
2023-02-26T16:15:28.609Z,2.38
2023-02-26T16:17:56.882Z,2.00
2023-02-26T16:20:27.807Z,2.05
2023-02-26T16:23:02.695Z,2.23
2023-02-26T16:25:36.913Z,2.28
2023-02-26T16:28:07.961Z,2.15
2023-02-26T16:30:37.995Z,1.83
2023-02-26T16:33:12.068Z,2.08
2023-02-26T16:35:44.992Z,2.05
2023-02-26T16:38:25.725Z,2.13
2023-02-26T16:41:23.299Z,2.80
2023-02-26T16:43:56.947Z,2.03
2023-02-26T16:46:42.937Z,2.33
2023-02-26T16:49:24.864Z,2.28
2023-02-26T16:51:54.311Z,2.10
2023-02-26T16:54:31.833Z,2.90
2023-02-26T16:57:05.454Z,1.95
2023-02-26T16:59:36.573Z,2.45
2023-02-26T17:02:18.531Z,2.22
2023-02-26T17:04:50.548Z,2.13
2023-02-26T17:07:25.436Z,2.60
2023-02-26T17:09:56.532Z,2.22
2023-02-26T17:12:40.393Z,1.98
2023-02-26T17:15:18.059Z,2.10
2023-02-26T17:17:45.362Z,2.28
2023-02-26T17:20:12.813Z,2.53
2023-02-26T17:22:43.833Z,2.55
2023-02-26T17:25:16.647Z,2.03
2023-02-26T17:27:46.115Z,2.35
2023-02-26T17:30:17.626Z,2.58
2023-02-26T17:32:45.076Z,1.98
2023-02-26T17:35:14.177Z,2.53
2023-02-26T17:37:43.120Z,2.40
2023-02-26T17:40:24.641Z,2.42
2023-02-26T17:42:52.815Z,1.98
2023-02-26T17:45:21.131Z,2.40
2023-02-26T17:47:50.136Z,2.28
2023-02-26T17:50:50.165Z,2.10
2023-02-26T17:53:20.184Z,2.42
2023-02-26T17:55:49.513Z,2.58
2023-02-26T17:58:28.673Z,2.80
2023-02-26T18:00:56.159Z,3.03
2023-02-26T18:03:23.752Z,2.80
2023-02-26T18:05:53.098Z,3.08
2023-02-26T18:08:29.408Z,3.00
2023-02-26T18:10:58.046Z,3.53
2023-02-26T18:13:26.397Z,3.72
2023-02-26T18:15:56.512Z,3.22
2023-02-26T18:18:25.950Z,3.17
2023-02-26T18:20:53.506Z,3.35
2023-02-26T18:23:21.988Z,3.53
2023-02-26T18:25:51.066Z,2.90
2023-02-26T18:28:23.927Z,3.42
2023-02-26T18:30:52.642Z,3.85
2023-02-26T18:33:21.328Z,4.13
2023-02-26T18:35:56.215Z,3.63
2023-02-26T18:38:27.571Z,4.00
2023-02-26T18:40:56.337Z,4.43
2023-02-26T18:43:23.897Z,3.92
2023-02-26T18:45:52.486Z,4.57
2023-02-26T18:48:21.653Z,4.30
2023-02-26T18:50:49.218Z,3.80
2023-02-26T18:53:17.782Z,3.58
2023-02-26T18:55:44.894Z,4.22
2023-02-26T18:58:12.598Z,3.67
2023-02-26T19:00:40.235Z,3.45
2023-02-26T19:03:09.341Z,3.67
2023-02-26T19:05:37.342Z,4.00
2023-02-26T19:08:05.799Z,2.75
2023-02-26T19:10:34.384Z,4.47
2023-02-26T19:13:02.244Z,2.83
2023-02-26T19:15:29.693Z,3.17
2023-02-26T19:17:56.911Z,3.15
2023-02-26T19:20:23.892Z,3.05
2023-02-26T19:22:51.303Z,3.40
2023-02-26T19:25:24.074Z,2.58
2023-02-26T19:27:53.743Z,2.95
2023-02-26T19:30:22.592Z,2.85
2023-02-26T19:32:51.045Z,3.67
2023-02-26T19:35:19.632Z,2.80
2023-02-26T19:37:47.418Z,2.85
2023-02-26T19:40:19.774Z,3.15
2023-02-26T19:42:47.985Z,3.08
2023-02-26T19:45:15.868Z,3.08
2023-02-26T19:47:43.788Z,3.05
2023-02-26T19:50:11.954Z,2.50
2023-02-26T19:52:39.263Z,2.75
2023-02-26T19:55:07.994Z,2.95
2023-02-26T19:57:35.457Z,2.72
2023-02-26T20:00:05.319Z,2.58
2023-02-26T20:02:39.642Z,2.50
2023-02-26T20:05:08.394Z,2.65
2023-02-26T20:07:36.273Z,2.28
2023-02-26T20:10:04.171Z,2.60
2023-02-26T20:12:31.807Z,2.70
2023-02-26T20:14:59.189Z,3.20
2023-02-26T20:17:26.852Z,2.53
2023-02-26T20:19:53.937Z,2.53
2023-02-26T20:22:22.933Z,2.28
2023-02-26T20:24:50.060Z,1.60
2023-02-26T20:27:17.423Z,2.05
2023-02-26T20:29:44.982Z,2.00
2023-02-26T20:32:12.783Z,2.22
2023-02-26T20:34:40.528Z,1.50
2023-02-26T20:37:08.071Z,1.80
2023-02-26T20:39:34.924Z,1.45
2023-02-26T20:42:02.203Z,1.98
2023-02-26T20:44:29.687Z,1.67
2023-02-26T20:46:57.187Z,2.50
2023-02-26T20:49:25.619Z,2.20
2023-02-26T20:51:53.452Z,1.60
2023-02-26T20:54:22.838Z,2.10
2023-02-26T20:56:50.929Z,1.67
2023-02-26T20:59:18.530Z,1.80
2023-02-26T21:01:47.870Z,2.13
2023-02-26T21:04:14.870Z,2.08
2023-02-26T21:06:42.661Z,1.83
2023-02-26T21:09:11.209Z,2.10
2023-02-26T21:11:39.805Z,1.60
2023-02-26T21:14:08.242Z,1.67
2023-02-26T21:16:40.033Z,2.17
2023-02-26T21:21:35.365Z,2.40
2023-02-26T21:24:02.836Z,2.08
2023-02-26T21:26:30.039Z,1.83
2023-02-26T21:28:57.391Z,1.88
2023-02-26T21:31:24.696Z,2.13
2023-02-26T21:33:51.776Z,2.40
2023-02-26T21:36:19.582Z,2.53
2023-02-26T21:38:46.946Z,2.35
2023-02-26T21:41:15.209Z,2.60
2023-02-26T21:43:42.304Z,2.78
2023-02-26T21:46:10.171Z,2.13
2023-02-26T21:48:37.586Z,2.75
2023-02-26T21:51:05.621Z,2.80
2023-02-26T21:53:33.123Z,2.58
2023-02-26T21:56:00.612Z,2.67
2023-02-26T21:58:28.306Z,2.90
2023-02-26T22:00:59.341Z,2.78
2023-02-26T22:03:27.048Z,2.55
2023-02-26T22:05:54.550Z,2.85
2023-02-26T22:08:23.276Z,3.50
2023-02-26T22:10:50.521Z,2.67
2023-02-26T22:13:18.238Z,2.83
2023-02-26T22:15:46.504Z,2.65
2023-02-26T22:18:13.772Z,2.92
2023-02-26T22:20:40.965Z,3.00
2023-02-26T22:23:08.001Z,3.58
2023-02-26T22:25:35.225Z,3.10
2023-02-26T22:28:02.199Z,2.90
2023-02-26T22:30:29.752Z,3.03
2023-02-26T22:32:56.968Z,3.20
2023-02-26T22:35:24.372Z,3.03
2023-02-26T22:37:51.261Z,3.03
2023-02-26T22:40:18.826Z,3.30
2023-02-26T22:42:45.953Z,3.05
2023-02-26T22:45:17.278Z,3.40
2023-02-26T22:47:45.622Z,2.80
2023-02-26T22:50:15.120Z,2.97
2023-02-26T22:52:43.087Z,3.42
2023-02-26T22:55:11.790Z,3.03
2023-02-26T22:57:38.779Z,2.80
2023-02-26T23:00:11.361Z,3.13
2023-02-26T23:02:39.049Z,2.70
2023-02-26T23:05:08.126Z,3.08
2023-02-26T23:07:36.349Z,2.80
2023-02-26T23:10:05.159Z,3.38
2023-02-26T23:12:32.694Z,2.88
2023-02-26T23:15:00.543Z,3.13
2023-02-26T23:17:27.918Z,2.42
2023-02-26T23:19:55.067Z,2.92
2023-02-26T23:22:22.452Z,2.40
2023-02-26T23:24:49.963Z,2.13
2023-02-26T23:27:17.485Z,2.10
2023-02-26T23:29:45.928Z,2.10
2023-02-26T23:32:14.399Z,1.75
2023-02-26T23:34:41.719Z,1.80
2023-02-26T23:37:08.822Z,2.13
2023-02-26T23:39:36.975Z,1.48
2023-02-26T23:42:04.391Z,1.80
2023-02-26T23:44:31.903Z,1.48
2023-02-26T23:46:59.698Z,1.60
2023-02-26T23:49:27.118Z,1.75
2023-02-26T23:51:54.283Z,1.80
2023-02-26T23:54:21.444Z,1.50
2023-02-26T23:56:48.691Z,2.28
2023-02-26T23:59:17.976Z,1.88
